createdAt,value
2018-06-10T00:02:19.664Z,23.63
2018-06-10T00:04:48.523Z,21.30
2018-06-10T00:07:17.665Z,27.87
2018-06-10T00:09:46.522Z,22.73
2018-06-10T00:12:15.575Z,22.87
2018-06-10T00:14:44.623Z,25.47
2018-06-10T00:17:13.672Z,24.43
2018-06-10T00:19:42.719Z,25.73
2018-06-10T00:22:11.614Z,23.27
2018-06-10T00:24:40.655Z,22.67
2018-06-10T00:27:09.728Z,22.77
2018-06-10T00:29:38.799Z,22.13
2018-06-10T00:32:07.856Z,22.63
2018-06-10T00:34:36.919Z,22.27
2018-06-10T00:37:06.072Z,23.77
2018-06-10T00:39:35.063Z,22.07
2018-06-10T00:42:04.119Z,24.97
2018-06-10T00:44:33.176Z,25.07
2018-06-10T00:47:02.233Z,22.90
2018-06-10T00:49:31.299Z,25.33
2018-06-10T00:52:00.343Z,26.60
2018-06-10T00:54:29.415Z,30.47
2018-06-10T00:56:58.476Z,24.73
2018-06-10T00:59:27.536Z,25.57
2018-06-10T01:01:56.627Z,25.13
2018-06-10T01:04:25.675Z,24.23
2018-06-10T01:06:54.739Z,25.77
2018-06-10T01:09:23.779Z,23.50
2018-06-10T01:11:53.470Z,24.33
2018-06-10T01:14:22.517Z,24.50
2018-06-10T01:16:51.625Z,22.80
2018-06-10T01:19:20.839Z,23.03
2018-06-10T01:21:50.711Z,27.63
2018-06-10T01:24:19.756Z,22.43
2018-06-10T01:26:51.388Z,27.63
2018-06-10T01:29:20.914Z,32.10
2018-06-10T01:31:49.962Z,23.87
2018-06-10T01:34:19.015Z,23.57
2018-06-10T01:36:48.071Z,22.83
2018-06-10T01:39:17.131Z,20.17
2018-06-10T01:41:46.175Z,23.10
2018-06-10T01:44:15.223Z,25.70
2018-06-10T01:46:44.279Z,22.10
2018-06-10T01:49:13.331Z,20.73
2018-06-10T01:51:42.499Z,25.70
2018-06-10T01:54:11.540Z,22.90
2018-06-10T01:56:40.566Z,19.73
2018-06-10T01:59:09.648Z,24.17
2018-06-10T02:01:38.764Z,24.57
2018-06-10T02:04:07.816Z,25.10
2018-06-10T02:06:36.859Z,21.17
2018-06-10T02:09:06.990Z,22.57
2018-06-10T02:11:36.023Z,21.93
2018-06-10T02:14:05.083Z,20.43
2018-06-10T02:16:34.127Z,19.53
2018-06-10T02:19:03.183Z,23.60
2018-06-10T02:21:32.229Z,25.07
2018-06-10T02:24:01.311Z,23.23
2018-06-10T02:26:30.332Z,18.57
2018-06-10T02:28:59.379Z,19.90
2018-06-10T02:31:28.488Z,19.97
2018-06-10T02:33:57.548Z,20.33
2018-06-10T02:36:26.607Z,21.40
2018-06-10T02:38:55.675Z,21.47
2018-06-10T02:41:24.812Z,20.57
2018-06-10T02:43:53.929Z,21.37
2018-06-10T02:46:22.967Z,20.23
2018-06-10T02:48:52.007Z,21.50
2018-06-10T02:51:21.060Z,23.83
2018-06-10T02:53:50.160Z,20.80
2018-06-10T02:56:19.242Z,23.50
2018-06-10T02:58:48.371Z,21.13
2018-06-10T03:01:17.407Z,20.17
2018-06-10T03:03:46.475Z,21.03
2018-06-10T03:06:15.531Z,21.00
2018-06-10T03:08:44.575Z,22.10
2018-06-10T03:11:13.632Z,21.07
2018-06-10T03:13:42.679Z,19.30
2018-06-10T03:16:11.737Z,20.20
2018-06-10T03:18:40.767Z,23.00
2018-06-10T03:21:09.809Z,20.77
2018-06-10T03:23:38.839Z,27.90
2018-06-10T03:26:07.893Z,25.07
2018-06-10T03:28:36.931Z,24.13
2018-06-10T03:31:06.111Z,20.80
2018-06-10T03:33:35.157Z,21.10
2018-06-10T03:36:04.220Z,20.67
2018-06-10T03:38:33.287Z,22.90
2018-06-10T03:41:02.385Z,21.47
2018-06-10T03:43:31.437Z,27.40
2018-06-10T03:46:00.550Z,20.20
2018-06-10T03:48:29.644Z,20.57
2018-06-10T03:50:58.812Z,20.33
2018-06-10T03:53:27.884Z,22.03
2018-06-10T03:55:56.983Z,22.07
2018-06-10T03:58:25.963Z,21.67
2018-06-10T04:00:55.024Z,22.47
2018-06-10T04:03:24.189Z,21.93
2018-06-10T04:05:53.238Z,19.60
2018-06-10T04:08:22.284Z,19.60
2018-06-10T04:10:51.407Z,19.07
2018-06-10T04:13:20.455Z,20.00
2018-06-10T04:15:49.512Z,18.37
2018-06-10T04:18:18.558Z,19.97
2018-06-10T04:20:47.643Z,20.77
2018-06-10T04:23:16.675Z,17.77
2018-06-10T04:25:45.735Z,23.30
2018-06-10T04:28:14.771Z,19.90
2018-06-10T04:30:43.826Z,17.30
2018-06-10T04:33:12.867Z,18.30
2018-06-10T04:35:41.918Z,21.77
2018-06-10T04:38:10.960Z,22.63
2018-06-10T04:40:40.007Z,18.87
2018-06-10T04:43:09.107Z,18.20
2018-06-10T04:45:38.164Z,20.33
2018-06-10T04:48:07.232Z,23.40
2018-06-10T04:50:36.287Z,19.67
2018-06-10T04:53:05.345Z,18.90
2018-06-10T04:55:34.388Z,18.97
2018-06-10T04:58:03.443Z,19.00
2018-06-10T05:00:32.503Z,19.33
2018-06-10T05:03:01.559Z,21.43
2018-06-10T05:05:30.596Z,17.93
2018-06-10T05:07:59.655Z,17.83
2018-06-10T05:10:28.703Z,18.60
2018-06-10T05:12:57.666Z,17.87
2018-06-10T05:15:26.743Z,18.10
2018-06-10T05:17:55.839Z,16.70
2018-06-10T05:20:24.880Z,17.90
2018-06-10T05:22:53.956Z,16.93
2018-06-10T05:25:23.016Z,18.10
2018-06-10T05:27:52.079Z,23.70
2018-06-10T05:30:21.159Z,21.90
2018-06-10T05:32:50.272Z,22.43
2018-06-10T05:35:19.342Z,22.30
2018-06-10T05:37:48.591Z,21.40
2018-06-10T05:40:17.644Z,20.43
2018-06-10T05:42:46.711Z,21.23
2018-06-10T05:45:15.884Z,16.83
2018-06-10T05:47:44.952Z,18.00
2018-06-10T05:50:14.040Z,17.63
2018-06-10T05:52:43.095Z,21.27
2018-06-10T05:55:12.175Z,19.67
2018-06-10T05:57:41.244Z,20.77
2018-06-10T06:00:10.324Z,19.90
2018-06-10T06:02:39.378Z,19.48
2018-06-10T06:05:08.480Z,22.48
2018-06-10T06:07:37.603Z,20.97
2018-06-10T06:10:06.651Z,20.68
2018-06-10T06:12:35.707Z,21.73
2018-06-10T06:15:04.692Z,22.62
2018-06-10T06:17:33.736Z,21.52
2018-06-10T06:20:02.845Z,22.87
2018-06-10T06:22:31.963Z,27.30
2018-06-10T06:25:01.010Z,25.43
2018-06-10T06:27:30.061Z,27.55
2018-06-10T06:29:59.110Z,26.02
2018-06-10T06:32:28.188Z,26.52
2018-06-10T06:34:57.236Z,28.92
2018-06-10T06:37:26.384Z,26.65
2018-06-10T06:39:55.255Z,25.25
2018-06-10T06:42:24.427Z,28.87
2018-06-10T06:44:53.491Z,29.20
2018-06-10T06:47:22.560Z,28.02
2018-06-10T06:49:51.635Z,27.73
2018-06-10T06:52:20.754Z,27.98
2018-06-10T06:54:49.635Z,28.77
2018-06-10T06:57:18.715Z,26.55
2018-06-10T06:59:47.772Z,28.60
2018-06-10T07:02:16.823Z,26.87
2018-06-10T07:04:45.887Z,26.30
2018-06-10T07:07:15.043Z,30.30
2018-06-10T07:09:44.224Z,27.58
2018-06-10T07:12:13.622Z,26.60
2018-06-10T07:14:42.691Z,23.92
2018-06-10T07:17:11.731Z,30.20
2018-06-10T07:19:40.599Z,24.02
2018-06-10T07:22:09.631Z,26.77
2018-06-10T07:24:38.696Z,25.90
2018-06-10T07:27:07.740Z,27.37
2018-06-10T07:29:36.836Z,27.32
2018-06-10T07:32:05.859Z,24.45
2018-06-10T07:34:34.940Z,24.25
2018-06-10T07:37:04.103Z,24.10
2018-06-10T07:39:33.171Z,24.35
2018-06-10T07:42:02.240Z,25.70
2018-06-10T07:44:31.283Z,24.75
2018-06-10T07:47:00.348Z,26.65
2018-06-10T07:49:29.443Z,24.47
2018-06-10T07:51:58.476Z,22.90
2018-06-10T07:54:27.588Z,23.15
2018-06-10T07:56:56.628Z,23.85
2018-06-10T07:59:25.808Z,25.15
2018-06-10T08:01:54.872Z,23.02
2018-06-10T08:04:23.923Z,21.60
2018-06-10T08:06:52.977Z,25.95
2018-06-10T08:09:21.867Z,21.82
2018-06-10T08:11:50.934Z,22.73
2018-06-10T08:14:20.052Z,23.30
2018-06-10T08:16:49.119Z,24.92
2018-06-10T08:19:18.198Z,25.05
2018-06-10T08:21:47.239Z,23.32
2018-06-10T08:24:16.388Z,24.55
2018-06-10T08:26:45.431Z,23.70
2018-06-10T08:29:14.491Z,28.42
2018-06-10T08:31:43.541Z,22.25
2018-06-10T08:34:12.703Z,23.52
2018-06-10T08:36:41.764Z,26.60
2018-06-10T08:39:10.879Z,26.40
2018-06-10T08:41:39.930Z,24.87
2018-06-10T08:44:09.248Z,26.37
2018-06-10T08:46:38.443Z,24.72
2018-06-10T08:49:07.561Z,26.60
2018-06-10T08:51:36.687Z,25.55
2018-06-10T08:54:06.264Z,25.62
2018-06-10T08:56:35.347Z,25.68
2018-06-10T08:59:04.396Z,25.02
2018-06-10T09:01:33.431Z,23.18
2018-06-10T09:04:02.528Z,24.82
2018-06-10T09:06:31.579Z,24.40
2018-06-10T09:09:00.636Z,26.62
2018-06-10T09:11:29.900Z,27.07
2018-06-10T09:13:58.947Z,28.47
2018-06-10T09:16:27.998Z,27.55
2018-06-10T09:18:57.120Z,29.70
2018-06-10T09:21:26.191Z,25.15
2018-06-10T09:23:55.502Z,24.87
2018-06-10T09:26:24.584Z,24.65
2018-06-10T09:28:53.782Z,29.37
2018-06-10T09:31:22.783Z,30.88
2018-06-10T09:33:51.870Z,27.95
2018-06-10T09:36:20.980Z,27.70
2018-06-10T09:38:50.434Z,26.60
2018-06-10T09:41:19.499Z,30.55
2018-06-10T09:43:49.705Z,25.77
2018-06-10T09:46:18.759Z,27.95
2018-06-10T09:48:47.797Z,24.55
2018-06-10T09:51:16.683Z,26.40
2018-06-10T09:53:45.760Z,27.22
2018-06-10T09:56:14.967Z,25.08
2018-06-10T09:58:43.996Z,24.27
2018-06-10T10:01:13.049Z,26.93
2018-06-10T10:03:42.165Z,29.15
2018-06-10T10:06:11.215Z,29.23
2018-06-10T10:08:40.259Z,24.15
2018-06-10T10:11:09.319Z,26.48
2018-06-10T10:13:38.416Z,25.00
2018-06-10T10:16:07.471Z,23.55
2018-06-10T10:18:36.607Z,26.30
2018-06-10T10:21:05.651Z,21.90
2018-06-10T10:23:34.716Z,22.55
2018-06-10T10:26:03.771Z,23.90
2018-06-10T10:28:32.819Z,23.75
2018-06-10T10:31:01.859Z,24.07
2018-06-10T10:33:31.015Z,24.87
2018-06-10T10:36:00.064Z,22.75
2018-06-10T10:38:29.167Z,21.70
2018-06-10T10:40:58.204Z,23.05
2018-06-10T10:43:27.264Z,24.65
2018-06-10T10:45:56.419Z,22.32
2018-06-10T10:48:25.545Z,25.10
2018-06-10T10:50:54.628Z,23.73
2018-06-10T10:53:23.690Z,22.52
2018-06-10T10:55:52.746Z,24.23
2018-06-10T10:58:21.811Z,22.98
2018-06-10T11:00:51.019Z,23.50
2018-06-10T11:03:20.067Z,23.12
2018-06-10T11:05:49.125Z,22.27
2018-06-10T11:08:18.209Z,24.52
2018-06-10T11:10:47.300Z,20.52
2018-06-10T11:13:16.344Z,20.80
2018-06-10T11:15:45.406Z,20.92
2018-06-10T11:18:14.443Z,22.10
2018-06-10T11:20:43.662Z,21.75
2018-06-10T11:23:12.724Z,22.67
2018-06-10T11:25:41.783Z,25.02
2018-06-10T11:28:10.867Z,24.35
2018-06-10T11:30:39.964Z,22.22
2018-06-10T11:33:09.013Z,22.50
2018-06-10T11:35:38.062Z,22.35
2018-06-10T11:38:07.111Z,24.92
2018-06-10T11:40:36.187Z,20.50
2018-06-10T11:43:05.248Z,22.42
2018-06-10T11:45:34.339Z,19.92
2018-06-10T11:48:03.448Z,21.77
2018-06-10T11:50:32.538Z,20.17
2018-06-10T11:53:01.588Z,19.70
2018-06-10T11:55:30.774Z,20.52
2018-06-10T11:58:00.022Z,21.12
2018-06-10T12:00:29.031Z,21.40
2018-06-10T12:02:58.089Z,20.92
2018-06-10T12:05:27.156Z,20.05
2018-06-10T12:07:56.251Z,20.12
2018-06-10T12:10:25.339Z,19.02
2018-06-10T12:12:54.416Z,16.95
2018-06-10T12:15:23.483Z,16.45
2018-06-10T12:17:52.527Z,16.37
2018-06-10T12:20:21.616Z,14.95
2018-06-10T12:22:50.776Z,15.48
2018-06-10T12:25:20.159Z,20.90
2018-06-10T12:27:49.261Z,15.80
2018-06-10T12:30:18.303Z,16.97
2018-06-10T12:32:47.356Z,15.55
2018-06-10T12:35:16.511Z,15.28
2018-06-10T12:37:45.531Z,16.37
2018-06-10T12:40:14.625Z,16.15
2018-06-10T12:42:43.679Z,15.25
2018-06-10T12:45:12.722Z,15.68
2018-06-10T12:47:41.775Z,15.93
2018-06-10T12:50:10.831Z,15.00
2018-06-10T12:52:39.762Z,15.88
2018-06-10T12:55:08.814Z,15.65
2018-06-10T12:57:37.868Z,15.40
2018-06-10T13:00:06.827Z,14.25
2018-06-10T13:02:35.887Z,14.33
2018-06-10T13:05:04.920Z,13.98
2018-06-10T13:07:34.208Z,12.90
2018-06-10T13:10:03.347Z,12.68
2018-06-10T13:12:32.428Z,12.80
2018-06-10T13:15:01.484Z,12.55
2018-06-10T13:17:30.531Z,12.93
2018-06-10T13:19:59.583Z,13.50
2018-06-10T13:22:28.661Z,12.13
2018-06-10T13:24:57.735Z,13.20
2018-06-10T13:27:26.815Z,12.58
2018-06-10T13:29:55.889Z,12.30
2018-06-10T13:32:24.956Z,12.13
2018-06-10T13:34:54.103Z,11.93
2018-06-10T13:37:23.148Z,11.97
2018-06-10T13:39:52.217Z,12.25
2018-06-10T13:42:21.268Z,11.97
2018-06-10T13:44:50.311Z,11.18
2018-06-10T13:47:19.361Z,11.33
2018-06-10T13:49:48.439Z,12.25
2018-06-10T13:52:17.477Z,12.35
2018-06-10T13:54:46.568Z,11.35
2018-06-10T13:57:15.611Z,13.62
2018-06-10T13:59:44.672Z,12.20
2018-06-10T14:02:13.764Z,11.57
2018-06-10T14:04:42.815Z,11.57
2018-06-10T14:07:11.856Z,11.45
2018-06-10T14:09:40.921Z,11.35
2018-06-10T14:12:09.960Z,11.63
2018-06-10T14:14:39.019Z,12.23
2018-06-10T14:17:08.059Z,11.57
2018-06-10T14:19:37.117Z,11.53
2018-06-10T14:22:06.199Z,11.05
2018-06-10T14:24:35.252Z,11.53
2018-06-10T14:27:04.361Z,11.08
2018-06-10T14:29:33.452Z,10.98
2018-06-10T14:32:02.518Z,12.18
2018-06-10T14:34:31.570Z,10.23
2018-06-10T14:37:00.608Z,63.87
2018-06-10T14:39:29.729Z,11.70
2018-06-10T14:41:58.771Z,13.48
2018-06-10T14:44:27.833Z,21.23
2018-06-10T14:46:56.931Z,10.82
2018-06-10T14:49:26.034Z,17.65
2018-06-10T14:51:55.054Z,11.35
2018-06-10T14:54:24.104Z,11.22
2018-06-10T14:56:53.140Z,12.30
2018-06-10T14:59:22.191Z,11.50
2018-06-10T15:01:51.280Z,11.28
2018-06-10T15:04:20.340Z,11.15
2018-06-10T15:06:49.380Z,11.33
2018-06-10T15:09:18.440Z,12.03
2018-06-10T15:11:47.573Z,11.28
2018-06-10T15:14:16.575Z,13.10
2018-06-10T15:16:45.715Z,12.45
2018-06-10T15:19:14.839Z,12.98
2018-06-10T15:21:43.691Z,11.50
2018-06-10T15:24:12.740Z,11.57
2018-06-10T15:26:41.792Z,11.03
2018-06-10T15:29:10.847Z,11.48
2018-06-10T15:31:39.650Z,11.63
2018-06-10T15:34:08.709Z,10.68
2018-06-10T15:36:37.790Z,15.60
2018-06-10T15:39:08.796Z,17.40
2018-06-10T15:41:37.971Z,16.15
2018-06-10T15:44:07.019Z,16.65
2018-06-10T15:46:36.140Z,17.15
2018-06-10T15:49:05.203Z,15.53
2018-06-10T15:51:34.316Z,16.02
2018-06-10T15:54:03.379Z,15.00
2018-06-10T15:56:32.452Z,15.58
2018-06-10T15:59:01.492Z,15.35
2018-06-10T16:01:30.545Z,15.13
2018-06-10T16:03:59.591Z,15.25
2018-06-10T16:06:28.640Z,15.40
2018-06-10T16:08:57.743Z,16.93
2018-06-10T16:11:26.791Z,15.80
2018-06-10T16:13:55.859Z,16.55
2018-06-10T16:16:24.758Z,16.62
2018-06-10T16:18:53.808Z,18.42
2018-06-10T16:21:22.920Z,15.70
2018-06-10T16:23:51.980Z,16.85
2018-06-10T16:26:21.039Z,16.77
2018-06-10T16:28:50.083Z,17.02
2018-06-10T16:31:19.131Z,16.02
2018-06-10T16:33:48.177Z,16.70
2018-06-10T16:36:17.243Z,15.72
2018-06-10T16:38:46.301Z,15.40
2018-06-10T16:41:15.347Z,17.10
2018-06-10T16:43:44.500Z,16.62
2018-06-10T16:46:13.563Z,16.30
2018-06-10T16:48:42.623Z,15.63
2018-06-10T16:51:11.673Z,15.50
2018-06-10T16:53:40.771Z,15.50
2018-06-10T16:56:09.815Z,15.55
2018-06-10T16:58:38.875Z,16.07
2018-06-10T17:01:07.935Z,15.60
2018-06-10T17:03:37.092Z,15.45
2018-06-10T17:06:06.148Z,14.65
2018-06-10T17:08:35.262Z,15.28
2018-06-10T17:11:04.255Z,17.57
2018-06-10T17:13:33.295Z,13.90
2018-06-10T17:16:02.386Z,15.58
2018-06-10T17:18:31.428Z,14.83
2018-06-10T17:21:00.495Z,16.97
2018-06-10T17:23:29.571Z,15.05
2018-06-10T17:25:58.620Z,16.23
2018-06-10T17:28:27.722Z,16.50
2018-06-10T17:30:56.755Z,16.00
2018-06-10T17:33:25.820Z,17.50
2018-06-10T17:35:54.871Z,16.82
2018-06-10T17:38:23.923Z,16.57
2018-06-10T17:40:52.763Z,15.53
2018-06-10T17:43:21.823Z,13.10
2018-06-10T17:45:50.873Z,12.50
2018-06-10T17:48:19.971Z,11.60
2018-06-10T17:50:49.015Z,15.63
2018-06-10T17:53:18.063Z,12.15
2018-06-10T17:55:47.104Z,12.13
2018-06-10T17:58:16.165Z,14.23
2018-06-10T18:00:45.228Z,14.63
2018-06-10T18:03:14.275Z,14.28
2018-06-10T18:05:43.351Z,12.78
2018-06-10T18:08:12.404Z,12.30
2018-06-10T18:10:41.599Z,12.68
2018-06-10T18:13:10.643Z,11.88
2018-06-10T18:15:41.470Z,13.43
2018-06-10T18:18:10.938Z,13.32
2018-06-10T18:20:40.332Z,12.20
2018-06-10T18:23:09.880Z,12.43
2018-06-10T18:25:39.777Z,12.37
2018-06-10T18:28:09.206Z,11.50
2018-06-10T18:30:38.190Z,11.85
2018-06-10T18:33:07.684Z,14.18
2018-06-10T18:35:36.864Z,11.05
2018-06-10T18:38:05.966Z,12.60
2018-06-10T18:40:35.044Z,11.83
2018-06-10T18:43:04.198Z,12.53
2018-06-10T18:45:33.267Z,11.85
2018-06-10T18:48:02.338Z,10.72
2018-06-10T18:50:31.490Z,11.03
2018-06-10T18:53:00.552Z,11.63
2018-06-10T18:55:29.627Z,66.62
2018-06-10T18:57:58.727Z,15.95
2018-06-10T19:00:27.869Z,11.57
2018-06-10T19:02:56.994Z,13.83
2018-06-10T19:05:26.048Z,15.50
2018-06-10T19:07:55.103Z,20.45
2018-06-10T19:10:24.322Z,11.15
2018-06-10T19:12:53.371Z,11.18
2018-06-10T19:15:22.414Z,11.00
2018-06-10T19:17:51.488Z,12.25
2018-06-10T19:20:20.591Z,11.45
2018-06-10T19:22:49.644Z,13.05
2018-06-10T19:25:18.703Z,14.45
2018-06-10T19:27:47.765Z,12.10
2018-06-10T19:30:16.840Z,12.65
2018-06-10T19:32:45.976Z,12.25
2018-06-10T19:35:14.973Z,13.35
2018-06-10T19:37:44.380Z,13.15
2018-06-10T19:40:13.571Z,13.08
2018-06-10T19:42:42.691Z,13.50
2018-06-10T19:45:11.808Z,11.30
2018-06-10T19:47:40.907Z,13.65
2018-06-10T19:50:10.100Z,11.10
2018-06-10T19:52:39.151Z,12.57
2018-06-10T19:55:08.237Z,12.67
2018-06-10T19:57:37.435Z,12.23
2018-06-10T20:00:06.548Z,13.93
2018-06-10T20:02:35.599Z,10.47
2018-06-10T20:05:05.072Z,10.97
2018-06-10T20:07:34.112Z,10.00
2018-06-10T20:10:03.155Z,9.90
2018-06-10T20:12:32.199Z,21.60
2018-06-10T20:15:01.335Z,12.40
2018-06-10T20:17:30.408Z,14.10
2018-06-10T20:19:59.496Z,10.63
2018-06-10T20:22:28.699Z,12.53
2018-06-10T20:24:57.707Z,12.70
2018-06-10T20:27:26.783Z,12.40
2018-06-10T20:29:55.858Z,11.00
2018-06-10T20:32:24.895Z,16.37
2018-06-10T20:34:53.967Z,13.13
2018-06-10T20:37:22.787Z,14.97
2018-06-10T20:39:51.834Z,10.43
2018-06-10T20:42:20.871Z,12.00
2018-06-10T20:44:49.939Z,11.70
2018-06-10T20:47:18.988Z,11.97
2018-06-10T20:49:47.891Z,15.17
2018-06-10T20:52:16.923Z,10.80
2018-06-10T20:54:45.992Z,13.93
2018-06-10T20:57:15.030Z,14.30
2018-06-10T20:59:44.087Z,10.53
2018-06-10T21:02:13.167Z,12.50
2018-06-10T21:04:42.232Z,11.20
2018-06-10T21:07:11.279Z,11.23
2018-06-10T21:09:40.351Z,11.07
2018-06-10T21:12:09.375Z,10.47
2018-06-10T21:14:38.451Z,12.63
2018-06-10T21:17:07.535Z,10.10
2018-06-10T21:19:36.603Z,11.57
2018-06-10T21:22:05.648Z,10.20
2018-06-10T21:24:34.742Z,12.33
2018-06-10T21:27:03.763Z,11.17
2018-06-10T21:29:32.840Z,14.33
2018-06-10T21:32:01.875Z,11.03
2018-06-10T21:34:30.931Z,16.70
2018-06-10T21:36:59.979Z,11.10
2018-06-10T21:39:29.092Z,18.97
2018-06-10T21:41:58.196Z,10.70
2018-06-10T21:44:27.259Z,14.00
2018-06-10T21:46:56.336Z,11.63
2018-06-10T21:49:25.390Z,11.73
2018-06-10T21:51:54.430Z,11.53
2018-06-10T21:54:23.488Z,12.47
2018-06-10T21:56:52.631Z,16.80
2018-06-10T21:59:21.681Z,14.60
2018-06-10T22:01:50.787Z,15.37
2018-06-10T22:04:19.872Z,16.40
2018-06-10T22:06:48.879Z,25.70
2018-06-10T22:09:17.997Z,32.70
2018-06-10T22:11:46.839Z,34.60
2018-06-10T22:14:15.892Z,36.20
2018-06-10T22:16:44.963Z,35.77
2018-06-10T22:19:14.003Z,34.43
2018-06-10T22:21:42.831Z,33.10
2018-06-10T22:24:11.907Z,37.73
2018-06-10T22:26:40.783Z,33.83
2018-06-10T22:29:09.836Z,39.03
2018-06-10T22:31:38.894Z,35.50
2018-06-10T22:34:07.959Z,35.83
2018-06-10T22:36:37.012Z,40.30
2018-06-10T22:39:08.470Z,43.67
2018-06-10T22:41:37.643Z,45.97
2018-06-10T22:44:06.688Z,38.67
2018-06-10T22:46:35.739Z,37.60
2018-06-10T22:49:04.863Z,42.93
2018-06-10T22:51:33.998Z,42.53
2018-06-10T22:54:20.295Z,40.03
2018-06-10T22:56:49.359Z,39.80
2018-06-10T22:59:18.387Z,43.07
2018-06-10T23:01:47.508Z,42.60
2018-06-10T23:04:16.564Z,42.13
2018-06-10T23:06:45.627Z,38.20
2018-06-10T23:09:14.660Z,44.10
2018-06-10T23:11:43.846Z,40.83
2018-06-10T23:14:12.940Z,38.37
2018-06-10T23:16:41.918Z,42.40
2018-06-10T23:19:10.967Z,47.67
2018-06-10T23:21:40.094Z,44.70
2018-06-10T23:24:09.140Z,36.97
2018-06-10T23:26:38.185Z,37.77
2018-06-10T23:29:07.228Z,37.50
2018-06-10T23:31:36.455Z,37.83
2018-06-10T23:34:05.504Z,39.13
2018-06-10T23:36:34.567Z,41.73
2018-06-10T23:39:04.709Z,37.10
2018-06-10T23:41:33.760Z,40.57
2018-06-10T23:44:02.799Z,42.20
2018-06-10T23:46:31.899Z,41.90
2018-06-10T23:49:00.976Z,38.77
2018-06-10T23:51:29.860Z,40.87
2018-06-10T23:53:58.895Z,37.30
2018-06-10T23:56:27.931Z,36.30
2018-06-10T23:58:57.008Z,44.70
